createdAt,value
2023-01-19T00:00:27.711Z,4.70
2023-01-19T00:02:54.869Z,5.27
2023-01-19T00:05:21.465Z,5.07
2023-01-19T00:07:48.130Z,5.03
2023-01-19T00:10:14.626Z,5.13
2023-01-19T00:12:40.973Z,4.87
2023-01-19T00:15:08.197Z,5.10
2023-01-19T00:17:35.052Z,5.10
2023-01-19T00:20:01.496Z,4.63
2023-01-19T00:22:27.900Z,4.80
2023-01-19T00:24:54.294Z,4.83
2023-01-19T00:27:20.754Z,4.93
2023-01-19T00:29:47.155Z,5.17
2023-01-19T00:32:13.598Z,4.83
2023-01-19T00:34:42.647Z,5.23
2023-01-19T00:37:10.112Z,5.30
2023-01-19T00:39:36.658Z,5.03
2023-01-19T00:42:22.110Z,5.33
2023-01-19T00:44:48.702Z,4.23
2023-01-19T00:47:15.089Z,5.80
2023-01-19T00:49:41.539Z,5.10
2023-01-19T00:52:08.096Z,4.87
2023-01-19T00:54:34.472Z,5.70
2023-01-19T00:57:01.324Z,5.77
2023-01-19T00:59:27.769Z,5.33
2023-01-19T01:01:54.248Z,5.20
2023-01-19T01:04:20.689Z,5.47
2023-01-19T01:06:47.212Z,5.53
2023-01-19T01:09:13.789Z,5.37
2023-01-19T01:11:43.657Z,5.07
2023-01-19T01:14:12.185Z,5.37
2023-01-19T01:16:39.515Z,5.60
2023-01-19T01:19:06.165Z,5.60
2023-01-19T01:21:34.654Z,5.13
2023-01-19T01:24:01.777Z,5.57
2023-01-19T01:26:28.371Z,5.13
2023-01-19T01:28:54.787Z,5.87
2023-01-19T01:31:21.185Z,5.33
2023-01-19T01:33:47.599Z,5.57
2023-01-19T01:36:14.195Z,5.10
2023-01-19T01:38:41.558Z,5.90
2023-01-19T01:41:09.042Z,5.47
2023-01-19T01:43:50.858Z,5.33
2023-01-19T01:46:18.070Z,5.73
2023-01-19T01:49:00.516Z,5.63
2023-01-19T01:51:29.934Z,6.20
2023-01-19T01:54:14.735Z,5.67
2023-01-19T01:56:46.963Z,5.63
2023-01-19T01:59:25.745Z,6.10
2023-01-19T02:02:15.970Z,6.07
2023-01-19T02:04:47.745Z,6.63
2023-01-19T02:07:40.012Z,6.20
2023-01-19T02:10:25.519Z,6.00
2023-01-19T02:13:10.752Z,6.10
2023-01-19T02:15:37.105Z,6.03
2023-01-19T02:18:03.595Z,5.60
2023-01-19T02:20:31.714Z,6.00
2023-01-19T02:23:03.770Z,6.10
2023-01-19T02:25:30.693Z,5.60
2023-01-19T02:27:57.362Z,6.70
2023-01-19T02:30:24.152Z,5.50
2023-01-19T02:32:50.677Z,6.10
2023-01-19T02:35:17.384Z,6.07
2023-01-19T02:37:44.977Z,5.77
2023-01-19T02:40:15.053Z,6.07
2023-01-19T02:42:53.014Z,5.47
2023-01-19T02:45:21.891Z,5.10
2023-01-19T02:47:51.541Z,5.63
2023-01-19T02:50:50.534Z,5.40
2023-01-19T02:53:45.481Z,5.67
2023-01-19T02:56:30.233Z,5.50
2023-01-19T02:59:33.631Z,5.20
2023-01-19T03:02:16.432Z,5.10
2023-01-19T03:05:00.272Z,4.57
2023-01-19T03:08:04.411Z,4.57
2023-01-19T03:11:05.142Z,4.83
2023-01-19T03:13:52.856Z,4.53
2023-01-19T03:16:21.808Z,4.60
2023-01-19T03:18:55.724Z,4.20
2023-01-19T03:21:27.475Z,4.77
2023-01-19T03:23:58.089Z,4.73
2023-01-19T03:26:29.755Z,4.80
2023-01-19T03:29:00.446Z,4.30
2023-01-19T03:31:31.922Z,4.50
2023-01-19T03:34:03.941Z,3.90
2023-01-19T03:36:34.725Z,4.10
2023-01-19T03:39:04.384Z,4.40
2023-01-19T03:41:34.203Z,4.17
2023-01-19T03:44:01.677Z,4.90
2023-01-19T03:46:28.682Z,4.27
2023-01-19T03:48:55.186Z,4.17
2023-01-19T03:51:21.977Z,4.27
2023-01-19T03:53:49.987Z,3.53
2023-01-19T03:56:24.578Z,4.03
2023-01-19T03:58:51.650Z,4.30
2023-01-19T04:01:22.720Z,4.10
2023-01-19T04:03:50.445Z,4.00
2023-01-19T04:06:17.234Z,3.80
2023-01-19T04:08:43.662Z,4.03
2023-01-19T04:11:10.281Z,4.33
2023-01-19T04:13:36.898Z,3.77
2023-01-19T04:16:04.578Z,4.00
2023-01-19T04:18:34.704Z,3.90
2023-01-19T04:21:03.982Z,3.80
2023-01-19T04:23:30.759Z,4.23
2023-01-19T04:26:02.864Z,4.23
2023-01-19T04:28:29.865Z,3.73
2023-01-19T04:30:56.260Z,3.83
2023-01-19T04:33:22.990Z,3.40
2023-01-19T04:35:52.301Z,3.50
2023-01-19T04:38:20.551Z,3.50
2023-01-19T04:40:48.479Z,3.63
2023-01-19T04:43:15.224Z,3.37
2023-01-19T04:45:41.808Z,3.70
2023-01-19T04:48:08.304Z,3.70
2023-01-19T04:50:34.697Z,3.10
2023-01-19T04:53:02.357Z,2.97
2023-01-19T04:55:28.910Z,3.30
2023-01-19T04:57:55.552Z,3.37
2023-01-19T05:00:22.233Z,3.47
2023-01-19T05:02:48.814Z,3.13
2023-01-19T05:05:15.487Z,3.40
2023-01-19T05:07:42.798Z,3.50
2023-01-19T05:10:09.855Z,3.83
2023-01-19T05:12:36.499Z,4.10
2023-01-19T05:15:03.483Z,4.43
2023-01-19T05:17:30.269Z,3.80
2023-01-19T05:19:56.667Z,4.20
2023-01-19T05:22:23.043Z,4.00
2023-01-19T05:24:49.537Z,3.80
2023-01-19T05:27:16.016Z,4.53
2023-01-19T05:29:42.408Z,4.17
2023-01-19T05:32:08.926Z,3.70
2023-01-19T05:34:35.296Z,4.60
2023-01-19T05:37:01.683Z,4.50
2023-01-19T05:39:28.601Z,4.33
2023-01-19T05:41:54.965Z,4.43
2023-01-19T05:44:22.215Z,4.43
2023-01-19T05:46:48.627Z,5.00
2023-01-19T05:49:15.116Z,4.23
2023-01-19T05:51:45.235Z,4.83
2023-01-19T05:54:17.281Z,4.10
2023-01-19T05:56:43.815Z,4.73
2023-01-19T05:59:10.857Z,4.57
2023-01-19T06:01:39.902Z,5.03
2023-01-19T06:04:06.665Z,4.33
2023-01-19T06:06:33.024Z,4.83
2023-01-19T06:08:59.433Z,4.93
2023-01-19T06:11:26.085Z,5.03
2023-01-19T06:13:52.891Z,5.40
2023-01-19T06:16:19.473Z,4.93
2023-01-19T06:18:52.361Z,5.43
2023-01-19T06:21:18.753Z,5.53
2023-01-19T06:23:45.146Z,5.03
2023-01-19T06:26:11.589Z,5.47
2023-01-19T06:28:37.934Z,5.70
2023-01-19T06:31:04.492Z,6.00
2023-01-19T06:33:31.437Z,7.53
2023-01-19T06:35:57.807Z,6.13
2023-01-19T06:38:24.275Z,6.40
2023-01-19T06:40:58.541Z,6.60
2023-01-19T06:43:26.234Z,6.70
2023-01-19T06:45:52.917Z,6.60
2023-01-19T06:48:19.984Z,7.83
2023-01-19T06:50:47.248Z,8.57
2023-01-19T06:53:16.659Z,7.50
2023-01-19T06:55:46.514Z,7.87
2023-01-19T06:58:13.543Z,8.93
2023-01-19T07:00:40.336Z,7.60
2023-01-19T07:03:21.349Z,10.87
2023-01-19T07:05:51.564Z,9.57
2023-01-19T07:08:18.268Z,8.80
2023-01-19T07:11:25.948Z,7.63
2023-01-19T07:13:31.758Z,8.03
2023-01-19T07:15:58.233Z,9.13
2023-01-19T07:18:24.575Z,9.30
2023-01-19T07:20:51.992Z,8.10
2023-01-19T07:23:18.381Z,9.17
2023-01-19T07:25:46.285Z,9.27
2023-01-19T07:28:15.666Z,8.37
2023-01-19T07:30:43.871Z,8.87
2023-01-19T07:33:10.233Z,9.07
2023-01-19T07:35:36.565Z,8.87
2023-01-19T07:38:03.396Z,9.57
2023-01-19T07:40:29.908Z,9.07
2023-01-19T07:42:56.293Z,9.10
2023-01-19T07:45:22.770Z,8.87
2023-01-19T07:47:49.908Z,9.53
2023-01-19T07:50:17.625Z,9.90
2023-01-19T07:52:44.696Z,9.03
2023-01-19T07:55:11.067Z,10.23
2023-01-19T07:57:37.493Z,9.80
2023-01-19T08:00:05.020Z,9.53
2023-01-19T08:02:33.986Z,10.70
2023-01-19T08:05:00.341Z,9.53
2023-01-19T08:07:26.849Z,10.83
2023-01-19T08:09:53.366Z,9.90
2023-01-19T08:12:19.849Z,10.83
2023-01-19T08:14:46.328Z,10.77
2023-01-19T08:17:13.564Z,10.37
2023-01-19T08:19:41.598Z,10.87
2023-01-19T08:22:08.166Z,11.33
2023-01-19T08:24:34.541Z,12.33
2023-01-19T08:27:02.390Z,11.10
2023-01-19T08:29:32.077Z,11.73
2023-01-19T08:32:00.114Z,11.67
2023-01-19T08:34:27.139Z,11.27
2023-01-19T08:36:54.018Z,14.10
2023-01-19T08:39:20.485Z,13.17
2023-01-19T08:41:46.885Z,12.30
2023-01-19T08:44:13.309Z,11.10
2023-01-19T08:46:39.698Z,10.57
2023-01-19T08:49:06.152Z,10.70
2023-01-19T08:51:32.894Z,11.13
2023-01-19T08:53:59.296Z,11.63
2023-01-19T08:56:25.754Z,10.93
2023-01-19T08:59:07.803Z,10.93
2023-01-19T09:01:36.971Z,11.17
2023-01-19T09:04:03.593Z,11.87
2023-01-19T09:06:29.994Z,11.20
2023-01-19T09:08:57.508Z,10.63
2023-01-19T09:11:23.898Z,10.67
2023-01-19T09:13:50.573Z,10.93
2023-01-19T09:16:16.988Z,11.33
2023-01-19T09:18:45.033Z,10.47
2023-01-19T09:21:11.761Z,10.87
2023-01-19T09:23:38.227Z,10.57
2023-01-19T09:26:05.888Z,11.33
2023-01-19T09:28:32.460Z,10.67
2023-01-19T09:30:59.550Z,10.93
2023-01-19T09:33:35.628Z,10.60
2023-01-19T09:36:02.292Z,11.03
2023-01-19T09:38:32.557Z,10.37
2023-01-19T09:41:00.325Z,11.17
2023-01-19T09:43:41.399Z,10.63
2023-01-19T09:46:30.142Z,10.87
2023-01-19T09:48:59.653Z,11.50
2023-01-19T09:51:28.869Z,11.93
2023-01-19T09:54:14.523Z,11.30
2023-01-19T09:56:42.358Z,12.13
2023-01-19T09:59:29.865Z,12.83
2023-01-19T10:02:02.295Z,12.93
2023-01-19T10:04:41.939Z,12.93
2023-01-19T10:07:34.695Z,12.43
2023-01-19T10:10:20.757Z,13.77
2023-01-19T10:13:15.277Z,14.47
2023-01-19T10:15:47.912Z,13.23
2023-01-19T10:18:36.802Z,13.47
2023-01-19T10:21:11.008Z,13.27
2023-01-19T10:23:52.183Z,13.77
2023-01-19T10:26:23.906Z,14.40
2023-01-19T10:28:55.700Z,12.47
2023-01-19T10:31:24.233Z,14.20
2023-01-19T10:33:52.202Z,14.37
2023-01-19T10:36:24.319Z,14.00
2023-01-19T10:38:51.900Z,14.00
2023-01-19T10:41:24.339Z,14.07
2023-01-19T10:43:59.484Z,15.10
2023-01-19T10:46:45.562Z,14.30
2023-01-19T10:49:37.845Z,14.87
2023-01-19T10:52:08.027Z,15.90
2023-01-19T10:54:37.287Z,14.40
2023-01-19T10:57:08.043Z,14.50
2023-01-19T10:59:46.544Z,15.07
2023-01-19T11:02:49.272Z,15.03
2023-01-19T11:05:27.896Z,15.07
2023-01-19T11:07:54.324Z,15.87
2023-01-19T11:10:29.104Z,15.80
2023-01-19T11:13:12.406Z,15.87
2023-01-19T11:15:44.214Z,15.70
2023-01-19T11:18:30.522Z,15.40
2023-01-19T11:21:02.130Z,14.27
2023-01-19T11:23:32.492Z,14.97
2023-01-19T11:26:01.554Z,15.77
2023-01-19T11:28:35.577Z,14.27
2023-01-19T11:31:15.152Z,15.90
2023-01-19T11:33:49.049Z,13.93
2023-01-19T11:36:20.978Z,14.07
2023-01-19T11:38:52.864Z,14.60
2023-01-19T11:41:27.826Z,13.93
2023-01-19T11:44:17.283Z,14.23
2023-01-19T11:46:47.985Z,13.00
2023-01-19T11:49:27.328Z,14.23
2023-01-19T11:52:04.494Z,13.13
2023-01-19T11:54:37.074Z,13.90
2023-01-19T11:57:11.743Z,14.77
2023-01-19T11:59:38.203Z,14.50
2023-01-19T12:02:16.572Z,13.63
2023-01-19T12:04:44.511Z,14.03
2023-01-19T12:07:13.305Z,13.17
2023-01-19T12:09:45.447Z,13.73
2023-01-19T12:12:27.336Z,12.37
2023-01-19T12:15:05.031Z,12.60
2023-01-19T12:17:57.822Z,13.00
2023-01-19T12:20:24.086Z,11.70
2023-01-19T12:23:18.286Z,10.70
2023-01-19T12:26:01.561Z,12.00
2023-01-19T12:28:33.768Z,11.27
2023-01-19T12:31:01.699Z,11.37
2023-01-19T12:33:28.912Z,11.27
2023-01-19T12:36:00.732Z,11.63
2023-01-19T12:38:35.293Z,11.97
2023-01-19T12:41:22.053Z,11.10
2023-01-19T12:44:09.350Z,11.63
2023-01-19T12:46:38.188Z,11.93
2023-01-19T12:49:26.271Z,11.80
2023-01-19T12:52:11.842Z,11.97
2023-01-19T12:54:43.417Z,11.93
2023-01-19T12:57:24.706Z,11.07
2023-01-19T13:00:07.695Z,11.87
2023-01-19T13:02:46.231Z,13.00
2023-01-19T13:05:21.840Z,10.87
2023-01-19T13:08:06.651Z,11.10
2023-01-19T13:11:09.562Z,10.87
2023-01-19T13:13:38.182Z,11.23
2023-01-19T13:16:20.200Z,11.50
2023-01-19T13:18:49.779Z,11.27
2023-01-19T13:21:35.342Z,10.67
2023-01-19T13:24:07.611Z,10.73
2023-01-19T13:26:38.560Z,11.27
2023-01-19T13:29:13.993Z,12.20
2023-01-19T13:31:42.985Z,11.37
2023-01-19T13:34:17.050Z,10.70
2023-01-19T13:36:46.410Z,11.37
2023-01-19T13:39:20.164Z,11.67
2023-01-19T13:41:47.921Z,11.63
2023-01-19T13:44:25.573Z,11.77
2023-01-19T13:46:53.905Z,12.23
2023-01-19T13:49:23.046Z,11.23
2023-01-19T13:52:04.798Z,11.33
2023-01-19T13:54:31.441Z,12.50
2023-01-19T13:56:57.984Z,12.10
2023-01-19T13:59:24.385Z,12.70
2023-01-19T14:01:51.677Z,12.50
2023-01-19T14:04:28.683Z,12.77
2023-01-19T14:07:04.811Z,13.30
2023-01-19T14:09:31.942Z,12.27
2023-01-19T14:12:06.495Z,12.13
2023-01-19T14:14:33.278Z,11.50
2023-01-19T14:16:59.978Z,11.23
2023-01-19T14:19:26.450Z,12.00
2023-01-19T14:22:03.963Z,12.40
2023-01-19T14:24:33.146Z,12.27
2023-01-19T14:27:23.021Z,11.70
2023-01-19T14:29:53.499Z,11.67
2023-01-19T14:32:22.902Z,10.93
2023-01-19T14:35:09.836Z,11.80
2023-01-19T14:37:38.129Z,10.77
2023-01-19T14:40:21.607Z,9.93
2023-01-19T14:42:57.424Z,10.17
2023-01-19T14:45:30.297Z,10.37
2023-01-19T14:48:05.160Z,11.10
2023-01-19T14:50:37.854Z,10.80
2023-01-19T14:53:18.165Z,10.00
2023-01-19T14:55:51.172Z,9.83
2023-01-19T14:58:20.302Z,10.67
2023-01-19T15:00:48.886Z,9.30
2023-01-19T15:03:15.991Z,8.80
2023-01-19T15:05:46.827Z,9.83
2023-01-19T15:08:25.457Z,9.03
2023-01-19T15:10:51.991Z,9.13
2023-01-19T15:13:21.919Z,9.83
2023-01-19T15:15:49.934Z,9.47
2023-01-19T15:18:27.656Z,9.97
2023-01-19T15:20:55.161Z,9.00
2023-01-19T15:23:21.535Z,8.60
2023-01-19T15:25:48.772Z,9.50
2023-01-19T15:28:19.451Z,9.67
2023-01-19T15:30:46.102Z,10.30
2023-01-19T15:33:19.556Z,8.87
2023-01-19T15:35:45.907Z,9.10
2023-01-19T15:38:12.301Z,9.10
2023-01-19T15:40:38.830Z,8.70
2023-01-19T15:43:05.476Z,9.50
2023-01-19T15:45:48.378Z,8.63
2023-01-19T15:48:14.779Z,8.20
2023-01-19T15:50:43.662Z,9.17
2023-01-19T15:53:14.428Z,8.57
2023-01-19T15:55:40.966Z,8.97
2023-01-19T15:58:07.299Z,9.20
2023-01-19T16:00:34.926Z,8.70
2023-01-19T16:03:02.259Z,8.33
2023-01-19T16:05:41.993Z,8.83
2023-01-19T16:08:09.191Z,8.00
2023-01-19T16:10:35.616Z,7.87
2023-01-19T16:13:03.823Z,7.90
2023-01-19T16:15:30.362Z,8.27
2023-01-19T16:17:56.683Z,8.00
2023-01-19T16:20:23.116Z,7.83
2023-01-19T16:22:49.602Z,7.50
2023-01-19T16:25:15.988Z,7.63
2023-01-19T16:27:42.397Z,8.20
2023-01-19T16:30:12.246Z,8.87
2023-01-19T16:32:38.844Z,7.70
2023-01-19T16:35:05.801Z,7.27
2023-01-19T16:37:32.204Z,7.30
2023-01-19T16:39:58.629Z,7.00
2023-01-19T16:42:25.355Z,7.53
2023-01-19T16:44:51.783Z,6.80
2023-01-19T16:47:18.265Z,6.97
2023-01-19T16:49:44.618Z,6.20
2023-01-19T16:52:11.057Z,6.80
2023-01-19T16:54:39.350Z,6.20
2023-01-19T16:57:05.857Z,6.70
2023-01-19T16:59:32.494Z,6.60
2023-01-19T17:01:59.149Z,5.90
2023-01-19T17:04:27.055Z,7.07
2023-01-19T17:06:54.675Z,5.60
2023-01-19T17:09:21.303Z,5.20
2023-01-19T17:11:47.938Z,5.53
2023-01-19T17:14:17.285Z,5.07
2023-01-19T17:16:44.157Z,5.57
2023-01-19T17:19:14.806Z,5.10
2023-01-19T17:21:41.192Z,4.93
2023-01-19T17:24:07.643Z,4.73
2023-01-19T17:26:34.052Z,5.10
2023-01-19T17:29:02.073Z,5.10
2023-01-19T17:31:44.394Z,5.57
2023-01-19T17:34:10.796Z,6.47
2023-01-19T17:36:37.951Z,5.07
2023-01-19T17:39:06.931Z,4.87
2023-01-19T17:41:35.345Z,4.53
2023-01-19T17:44:03.876Z,4.60
2023-01-19T17:46:31.136Z,4.50
2023-01-19T17:49:00.288Z,4.57
2023-01-19T17:51:27.698Z,5.27
2023-01-19T17:53:55.030Z,5.03
2023-01-19T17:56:27.352Z,6.13
2023-01-19T17:58:53.993Z,9.03
2023-01-19T18:01:22.352Z,9.80
2023-01-19T18:03:49.010Z,8.07
2023-01-19T18:06:15.756Z,7.10
2023-01-19T18:08:43.993Z,5.77
2023-01-19T18:11:10.789Z,5.47
2023-01-19T18:13:37.997Z,5.07
2023-01-19T18:16:08.263Z,4.77
2023-01-19T18:18:35.479Z,4.00
2023-01-19T18:21:04.084Z,4.67
2023-01-19T18:23:30.521Z,4.60
2023-01-19T18:26:05.453Z,4.70
2023-01-19T18:28:32.635Z,4.80
2023-01-19T18:30:59.483Z,5.00
2023-01-19T18:33:27.704Z,4.40
2023-01-19T18:35:55.204Z,4.43
2023-01-19T18:38:21.668Z,6.30
2023-01-19T18:40:48.293Z,5.87
2023-01-19T18:43:15.082Z,5.90
2023-01-19T18:45:42.037Z,6.20
2023-01-19T18:48:14.478Z,7.37
2023-01-19T18:50:40.922Z,7.30
2023-01-19T18:53:07.329Z,8.53
2023-01-19T18:55:33.789Z,9.40
2023-01-19T18:58:00.436Z,8.90
2023-01-19T19:00:26.917Z,8.73
2023-01-19T19:02:55.562Z,9.60
2023-01-19T19:05:21.970Z,8.70
2023-01-19T19:07:48.526Z,9.07
2023-01-19T19:10:15.542Z,9.90
2023-01-19T19:12:41.960Z,8.07
2023-01-19T19:15:09.113Z,5.53
2023-01-19T19:17:35.736Z,6.20
2023-01-19T19:20:02.749Z,4.87
2023-01-19T19:22:29.143Z,5.23
2023-01-19T19:24:55.477Z,5.10
2023-01-19T19:27:21.803Z,4.67
2023-01-19T19:29:48.687Z,5.40
2023-01-19T19:32:20.222Z,4.70
2023-01-19T19:34:53.185Z,4.60
2023-01-19T19:37:19.948Z,4.50
2023-01-19T19:39:47.537Z,4.77
2023-01-19T19:42:13.929Z,4.90
2023-01-19T19:44:40.406Z,4.50
2023-01-19T19:47:06.896Z,4.70
2023-01-19T19:49:33.453Z,5.13
2023-01-19T19:52:00.005Z,4.90
2023-01-19T19:54:26.386Z,5.40
2023-01-19T19:56:53.683Z,6.03
2023-01-19T19:59:31.534Z,6.20
2023-01-19T20:01:57.968Z,5.37
2023-01-19T20:04:25.281Z,5.47
2023-01-19T20:06:51.695Z,5.07
2023-01-19T20:09:18.074Z,5.07
2023-01-19T20:11:46.602Z,4.87
2023-01-19T20:14:15.995Z,5.00
2023-01-19T20:16:42.895Z,5.17
2023-01-19T20:19:09.576Z,5.30
2023-01-19T20:21:37.597Z,5.87
2023-01-19T20:24:06.988Z,6.30
2023-01-19T20:26:35.926Z,7.93
2023-01-19T20:29:06.747Z,10.83
2023-01-19T20:31:40.073Z,12.37
2023-01-19T20:34:09.887Z,10.57
2023-01-19T20:36:36.781Z,12.20
2023-01-19T20:39:08.425Z,9.73
2023-01-19T20:41:42.781Z,8.77
2023-01-19T20:44:18.761Z,8.53
2023-01-19T20:46:45.629Z,7.67
2023-01-19T20:49:12.268Z,6.17
2023-01-19T20:51:43.224Z,8.43
2023-01-19T20:54:11.184Z,8.30
2023-01-19T20:56:38.206Z,9.47
2023-01-19T20:59:04.546Z,8.70
2023-01-19T21:01:31.248Z,9.90
2023-01-19T21:03:57.705Z,9.60
2023-01-19T21:06:24.864Z,10.90
2023-01-19T21:08:51.790Z,11.23
2023-01-19T21:11:20.814Z,10.27
2023-01-19T21:13:48.205Z,9.67
2023-01-19T21:16:15.477Z,9.63
2023-01-19T21:18:41.894Z,12.20
2023-01-19T21:21:14.955Z,11.27
2023-01-19T21:23:47.604Z,11.17
2023-01-19T21:26:14.578Z,10.87
2023-01-19T21:28:41.491Z,10.90
2023-01-19T21:31:10.133Z,11.03
2023-01-19T21:33:36.472Z,10.83
2023-01-19T21:36:03.080Z,11.23
2023-01-19T21:38:30.069Z,10.40
2023-01-19T21:40:57.580Z,9.93
2023-01-19T21:43:25.488Z,10.23
2023-01-19T21:45:52.002Z,10.70
2023-01-19T21:48:19.614Z,10.90
2023-01-19T21:50:46.097Z,10.17
2023-01-19T21:53:12.545Z,10.03
2023-01-19T21:55:43.570Z,10.27
2023-01-19T21:58:09.917Z,10.17
2023-01-19T22:00:36.286Z,10.53
2023-01-19T22:03:04.423Z,10.53
2023-01-19T22:05:36.783Z,9.63
2023-01-19T22:08:04.343Z,8.63
2023-01-19T22:10:30.781Z,8.67
2023-01-19T22:12:57.138Z,8.33
2023-01-19T22:15:23.573Z,8.83
2023-01-19T22:17:49.933Z,8.13
2023-01-19T22:20:16.556Z,8.20
2023-01-19T22:22:42.915Z,7.30
2023-01-19T22:25:09.652Z,7.57
2023-01-19T22:27:37.408Z,8.57
2023-01-19T22:30:04.040Z,10.10
2023-01-19T22:32:31.293Z,8.70
2023-01-19T22:34:57.628Z,9.00
2023-01-19T22:37:23.975Z,8.93
2023-01-19T22:39:50.393Z,8.73
2023-01-19T22:42:16.786Z,8.77
2023-01-19T22:44:43.517Z,8.77
2023-01-19T22:47:10.111Z,11.37
2023-01-19T22:49:36.614Z,9.97
2023-01-19T22:52:03.100Z,9.37
2023-01-19T22:54:30.310Z,8.70
2023-01-19T22:56:56.690Z,8.43
2023-01-19T22:59:23.036Z,8.40
2023-01-19T23:01:50.020Z,7.97
2023-01-19T23:04:16.633Z,8.57
2023-01-19T23:06:43.649Z,8.00
2023-01-19T23:09:12.731Z,8.50
2023-01-19T23:11:41.619Z,8.80
2023-01-19T23:14:12.274Z,8.50
2023-01-19T23:16:38.782Z,8.20
2023-01-19T23:19:05.486Z,8.97
2023-01-19T23:21:32.450Z,8.90
2023-01-19T23:24:01.655Z,7.70
2023-01-19T23:26:30.707Z,8.00
2023-01-19T23:28:59.527Z,8.73
2023-01-19T23:31:27.215Z,8.43
2023-01-19T23:33:56.733Z,7.97
2023-01-19T23:36:25.972Z,7.93
2023-01-19T23:39:04.953Z,8.20
2023-01-19T23:41:34.511Z,8.73
2023-01-19T23:44:01.471Z,8.03
2023-01-19T23:46:28.684Z,7.80
2023-01-19T23:48:55.498Z,7.70
2023-01-19T23:51:24.853Z,7.20
2023-01-19T23:53:51.842Z,7.70
2023-01-19T23:56:20.985Z,7.50
2023-01-19T23:58:52.074Z,11.57
